createdAt,value
2022-08-18T00:00:03.749Z,18.80
2022-08-18T00:01:03.707Z,18.78
2022-08-18T00:02:03.748Z,18.76
2022-08-18T00:03:15.837Z,18.76
2022-08-18T00:04:24.281Z,18.75
2022-08-18T00:05:04.675Z,18.72
2022-08-18T00:06:03.659Z,18.70
2022-08-18T00:07:03.637Z,18.69
2022-08-18T00:08:03.650Z,18.67
2022-08-18T00:09:03.618Z,18.65
2022-08-18T00:10:03.611Z,18.62
2022-08-18T00:11:03.592Z,18.62
2022-08-18T00:12:03.581Z,18.60
2022-08-18T00:13:03.591Z,18.57
2022-08-18T00:14:03.619Z,18.55
2022-08-18T00:15:03.560Z,18.55
2022-08-18T00:16:03.533Z,18.52
2022-08-18T00:17:03.542Z,18.50
2022-08-18T00:18:03.527Z,18.48
2022-08-18T00:19:08.670Z,18.45
2022-08-18T00:20:04.506Z,18.44
2022-08-18T00:21:03.483Z,18.42
2022-08-18T00:22:03.481Z,18.42
2022-08-18T00:23:03.462Z,18.39
2022-08-18T00:24:03.482Z,18.39
2022-08-18T00:25:03.432Z,18.36
2022-08-18T00:26:03.442Z,18.35
2022-08-18T00:27:03.404Z,18.32
2022-08-18T00:28:03.405Z,18.30
2022-08-18T00:29:03.379Z,18.30
2022-08-18T00:30:03.753Z,18.27
2022-08-18T00:31:03.356Z,18.27
2022-08-18T00:32:03.391Z,18.25
2022-08-18T00:33:03.345Z,18.23
2022-08-18T00:34:04.006Z,18.21
2022-08-18T00:35:03.326Z,18.20
2022-08-18T00:36:03.494Z,18.18
2022-08-18T00:37:03.292Z,18.18
2022-08-18T00:38:03.305Z,18.17
2022-08-18T00:39:03.277Z,18.14
2022-08-18T00:40:03.348Z,18.14
2022-08-18T00:41:03.252Z,18.12
2022-08-18T00:42:03.238Z,18.12
2022-08-18T00:43:03.219Z,18.12
2022-08-18T00:44:03.229Z,18.11
2022-08-18T00:45:03.217Z,18.11
2022-08-18T00:46:03.210Z,18.11
2022-08-18T00:47:03.181Z,18.11
2022-08-18T00:48:03.176Z,18.10
2022-08-18T00:49:03.151Z,18.10
2022-08-18T00:50:03.175Z,18.08
2022-08-18T00:51:03.132Z,18.10
2022-08-18T00:52:03.128Z,18.08
2022-08-18T00:53:03.114Z,18.08
2022-08-18T00:54:03.190Z,18.07
2022-08-18T00:55:03.117Z,18.08
2022-08-18T00:56:03.126Z,18.08
2022-08-18T00:57:03.080Z,18.07
2022-08-18T00:58:03.092Z,18.07
2022-08-18T00:59:03.045Z,18.05
2022-08-18T01:00:03.166Z,18.05
2022-08-18T01:01:03.107Z,18.05
2022-08-18T01:02:03.036Z,18.05
2022-08-18T01:03:03.004Z,18.05
2022-08-18T01:04:03.018Z,18.02
2022-08-18T01:05:02.983Z,18.00
2022-08-18T01:06:02.985Z,18.02
2022-08-18T01:07:02.955Z,18.02
2022-08-18T01:08:02.981Z,18.00
2022-08-18T01:09:02.939Z,18.00
2022-08-18T01:10:02.957Z,17.99
2022-08-18T01:11:02.926Z,17.99
2022-08-18T01:12:44.225Z,17.96
2022-08-18T01:13:03.887Z,17.97
2022-08-18T01:14:02.922Z,17.96
2022-08-18T01:15:02.883Z,17.95
2022-08-18T01:16:02.895Z,17.93
2022-08-18T01:17:02.858Z,17.93
2022-08-18T01:18:03.076Z,17.92
2022-08-18T01:19:02.829Z,17.92
2022-08-18T01:20:03.408Z,17.90
2022-08-18T01:21:02.818Z,17.89
2022-08-18T01:22:02.792Z,17.90
2022-08-18T01:23:02.850Z,17.89
2022-08-18T01:24:02.835Z,17.87
2022-08-18T01:25:02.758Z,17.86
2022-08-18T01:26:02.779Z,17.86
2022-08-18T01:27:02.731Z,17.84
2022-08-18T01:28:02.720Z,17.84
2022-08-18T01:29:02.712Z,17.82
2022-08-18T01:30:02.792Z,17.82
2022-08-18T01:31:02.693Z,17.81
2022-08-18T01:32:02.716Z,17.79
2022-08-18T01:33:30.066Z,17.81
2022-08-18T01:34:03.697Z,17.78
2022-08-18T01:35:02.653Z,17.78
2022-08-18T01:36:02.671Z,17.75
2022-08-18T01:37:02.633Z,17.77
2022-08-18T01:38:02.633Z,17.72
2022-08-18T01:39:02.606Z,17.75
2022-08-18T01:41:21.185Z,17.74
2022-08-18T01:41:26.492Z,17.72
2022-08-18T01:42:03.619Z,17.72
2022-08-18T01:43:02.557Z,17.72
2022-08-18T01:44:02.612Z,17.70
2022-08-18T01:45:02.557Z,17.70
2022-08-18T01:46:02.577Z,17.66
2022-08-18T01:47:02.525Z,17.66
2022-08-18T01:48:02.847Z,17.66
2022-08-18T01:49:02.517Z,17.64
2022-08-18T01:50:02.506Z,17.63
2022-08-18T01:51:02.491Z,17.62
2022-08-18T01:52:02.582Z,17.59
2022-08-18T01:53:02.474Z,17.59
2022-08-18T01:54:02.451Z,17.56
2022-08-18T01:55:02.443Z,17.56
2022-08-18T01:56:02.440Z,17.55
2022-08-18T01:57:02.414Z,17.54
2022-08-18T01:58:02.528Z,17.54
2022-08-18T01:59:02.418Z,17.54
2022-08-18T02:00:02.441Z,17.52
2022-08-18T02:01:02.381Z,17.52
2022-08-18T02:02:02.606Z,17.49
2022-08-18T02:03:02.865Z,17.49
2022-08-18T02:04:30.925Z,17.49
2022-08-18T02:05:03.336Z,17.48
2022-08-18T02:06:02.361Z,17.48
2022-08-18T02:07:02.405Z,17.46
2022-08-18T02:08:02.490Z,17.44
2022-08-18T02:09:02.283Z,17.44
2022-08-18T02:10:02.446Z,17.44
2022-08-18T02:11:02.274Z,17.44
2022-08-18T02:12:02.263Z,17.44
2022-08-18T02:13:02.236Z,17.43
2022-08-18T02:14:02.224Z,17.43
2022-08-18T02:15:02.249Z,17.44
2022-08-18T02:16:02.203Z,17.43
2022-08-18T02:17:02.881Z,17.41
2022-08-18T02:18:02.226Z,17.44
2022-08-18T02:19:02.191Z,17.41
2022-08-18T02:20:02.176Z,17.41
2022-08-18T02:21:02.182Z,17.41
2022-08-18T02:22:02.192Z,17.38
2022-08-18T02:23:02.137Z,17.40
2022-08-18T02:24:02.194Z,17.38
2022-08-18T02:25:02.107Z,17.37
2022-08-18T02:26:02.109Z,17.37
2022-08-18T02:27:02.098Z,17.36
2022-08-18T02:28:02.104Z,17.34
2022-08-18T02:29:02.070Z,17.34
2022-08-18T02:30:02.121Z,17.34
2022-08-18T02:31:02.057Z,17.33
2022-08-18T02:32:02.053Z,17.31
2022-08-18T02:33:02.031Z,17.31
2022-08-18T02:34:02.009Z,17.28
2022-08-18T02:35:02.009Z,17.26
2022-08-18T02:36:02.062Z,17.25
2022-08-18T02:37:01.980Z,17.23
2022-08-18T02:38:01.970Z,17.22
2022-08-18T02:39:01.960Z,17.22
2022-08-18T02:40:02.043Z,17.21
2022-08-18T02:41:02.048Z,17.18
2022-08-18T02:42:01.924Z,17.16
2022-08-18T02:43:01.911Z,17.16
2022-08-18T02:44:02.012Z,17.14
2022-08-18T02:45:01.894Z,17.12
2022-08-18T02:46:01.912Z,17.12
2022-08-18T02:47:01.872Z,17.08
2022-08-18T02:48:01.873Z,17.07
2022-08-18T02:49:01.858Z,17.07
2022-08-18T02:50:01.835Z,17.04
2022-08-18T02:51:01.844Z,17.03
2022-08-18T02:52:01.814Z,17.01
2022-08-18T02:53:01.804Z,17.01
2022-08-18T02:54:01.804Z,17.00
2022-08-18T02:55:01.777Z,16.98
2022-08-18T02:56:01.886Z,16.96
2022-08-18T02:57:01.775Z,16.97
2022-08-18T02:58:01.756Z,16.96
2022-08-18T02:59:01.743Z,16.94
2022-08-18T03:00:01.726Z,16.93
2022-08-18T03:01:01.748Z,16.93
2022-08-18T03:02:01.743Z,16.91
2022-08-18T03:03:01.697Z,16.91
2022-08-18T03:04:01.764Z,16.88
2022-08-18T03:05:01.679Z,16.88
2022-08-18T03:06:01.677Z,16.88
2022-08-18T03:07:01.645Z,16.88
2022-08-18T03:08:01.691Z,16.88
2022-08-18T03:09:01.618Z,16.86
2022-08-18T03:10:32.008Z,16.86
2022-08-18T03:11:02.630Z,16.86
2022-08-18T03:12:01.611Z,16.86
2022-08-18T03:13:01.579Z,16.85
2022-08-18T03:14:01.579Z,16.85
2022-08-18T03:15:01.563Z,16.86
2022-08-18T03:16:01.581Z,16.86
2022-08-18T03:17:01.549Z,16.85
2022-08-18T03:18:01.558Z,16.85
2022-08-18T03:19:01.542Z,16.85
2022-08-18T03:20:01.509Z,16.85
2022-08-18T03:21:01.521Z,16.83
2022-08-18T03:22:02.737Z,16.85
2022-08-18T03:23:05.846Z,16.85
2022-08-18T03:24:02.871Z,16.83
2022-08-18T03:25:02.452Z,16.83
2022-08-18T03:26:01.483Z,16.85
2022-08-18T03:27:01.433Z,16.83
2022-08-18T03:28:01.421Z,16.85
2022-08-18T03:29:01.414Z,16.85
2022-08-18T03:30:01.405Z,16.85
2022-08-18T03:31:01.401Z,16.85
2022-08-18T03:32:01.412Z,16.86
2022-08-18T03:33:01.365Z,16.89
2022-08-18T03:34:01.354Z,16.89
2022-08-18T03:35:01.344Z,16.89
2022-08-18T03:36:01.364Z,16.91
2022-08-18T03:37:01.335Z,16.94
2022-08-18T03:38:01.327Z,16.96
2022-08-18T03:39:01.303Z,16.98
2022-08-18T03:40:01.368Z,16.98
2022-08-18T03:41:01.297Z,16.98
2022-08-18T03:42:02.120Z,17.00
2022-08-18T03:43:02.198Z,17.01
2022-08-18T03:44:01.267Z,17.01
2022-08-18T03:45:01.236Z,17.03
2022-08-18T03:46:02.475Z,17.04
2022-08-18T03:47:01.216Z,17.03
2022-08-18T03:48:01.210Z,17.04
2022-08-18T03:49:01.188Z,17.04
2022-08-18T03:50:01.188Z,17.03
2022-08-18T03:51:05.150Z,17.03
2022-08-18T03:52:01.431Z,17.04
2022-08-18T03:53:01.148Z,17.04
2022-08-18T03:54:01.140Z,17.03
2022-08-18T03:55:01.120Z,17.01
2022-08-18T03:56:01.141Z,17.01
2022-08-18T03:57:01.341Z,17.01
2022-08-18T03:58:01.092Z,17.01
2022-08-18T03:59:01.261Z,16.98
2022-08-18T04:00:01.083Z,17.00
2022-08-18T04:01:01.176Z,16.98
2022-08-18T04:02:01.168Z,16.97
2022-08-18T04:03:01.054Z,16.96
2022-08-18T04:04:01.026Z,16.94
2022-08-18T04:05:01.023Z,16.94
2022-08-18T04:06:01.033Z,16.93
2022-08-18T04:07:01.055Z,16.91
2022-08-18T04:08:00.983Z,16.88
2022-08-18T04:09:00.975Z,16.89
2022-08-18T04:10:00.964Z,16.86
2022-08-18T04:11:00.964Z,16.88
2022-08-18T04:12:00.953Z,16.86
2022-08-18T04:13:00.925Z,16.86
2022-08-18T04:14:00.915Z,16.88
2022-08-18T04:15:00.907Z,16.88
2022-08-18T04:16:00.914Z,16.86
2022-08-18T04:17:00.888Z,16.89
2022-08-18T04:18:03.956Z,16.89
2022-08-18T04:19:00.867Z,16.93
2022-08-18T04:20:00.859Z,16.93
2022-08-18T04:21:01.078Z,16.96
2022-08-18T04:22:00.847Z,16.97
2022-08-18T04:23:00.828Z,17.00
2022-08-18T04:24:00.828Z,17.03
2022-08-18T04:25:00.802Z,17.06
2022-08-18T04:26:00.816Z,17.07
2022-08-18T04:27:00.782Z,17.12
2022-08-18T04:28:00.770Z,17.15
2022-08-18T04:29:00.758Z,17.18
2022-08-18T04:30:00.751Z,17.19
2022-08-18T04:31:00.789Z,17.23
2022-08-18T04:32:00.730Z,17.22
2022-08-18T04:33:00.712Z,17.25
2022-08-18T04:34:00.709Z,17.26
2022-08-18T04:35:02.540Z,17.28
2022-08-18T04:36:00.694Z,17.30
2022-08-18T04:37:00.686Z,17.31
2022-08-18T04:38:00.663Z,17.31
2022-08-18T04:39:00.652Z,17.33
2022-08-18T04:40:00.673Z,17.34
2022-08-18T04:41:00.632Z,17.34
2022-08-18T04:42:00.616Z,17.36
2022-08-18T04:43:00.603Z,17.37
2022-08-18T04:44:00.593Z,17.38
2022-08-18T04:45:00.584Z,17.40
2022-08-18T04:46:00.573Z,17.41
2022-08-18T04:47:00.568Z,17.40
2022-08-18T04:48:00.544Z,17.41
2022-08-18T04:49:00.534Z,17.43
2022-08-18T04:50:00.525Z,17.41
2022-08-18T04:51:00.527Z,17.44
2022-08-18T04:52:37.357Z,17.46
2022-08-18T04:53:01.498Z,17.46
2022-08-18T04:54:00.479Z,17.48
2022-08-18T04:55:00.466Z,17.49
2022-08-18T04:56:00.466Z,17.51
2022-08-18T04:57:00.456Z,17.51
2022-08-18T04:58:00.430Z,17.54
2022-08-18T04:59:00.428Z,17.55
2022-08-18T05:00:00.409Z,17.55
2022-08-18T05:01:00.508Z,17.56
2022-08-18T05:02:00.381Z,17.58
2022-08-18T05:03:00.378Z,17.59
2022-08-18T05:04:00.369Z,17.62
2022-08-18T05:05:00.350Z,17.62
2022-08-18T05:06:00.359Z,17.62
2022-08-18T05:07:00.329Z,17.63
2022-08-18T05:08:00.311Z,17.64
2022-08-18T05:09:00.309Z,17.66
2022-08-18T05:10:00.308Z,17.68
2022-08-18T05:11:03.818Z,17.70
2022-08-18T05:12:00.272Z,17.71
2022-08-18T05:13:00.261Z,17.72
2022-08-18T05:14:00.250Z,17.74
2022-08-18T05:15:00.256Z,17.77
2022-08-18T05:16:10.435Z,17.77
2022-08-18T05:17:01.255Z,17.77
2022-08-18T05:18:00.206Z,17.78
2022-08-18T05:19:00.197Z,17.79
2022-08-18T05:20:00.808Z,17.81
2022-08-18T05:21:00.173Z,17.82
2022-08-18T05:22:02.867Z,17.82
2022-08-18T05:23:00.155Z,17.84
2022-08-18T05:24:00.156Z,17.86
2022-08-18T05:25:00.374Z,17.84
2022-08-18T05:26:00.115Z,17.86
2022-08-18T05:27:00.117Z,17.87
2022-08-18T05:28:00.092Z,17.89
2022-08-18T05:29:01.732Z,17.89
2022-08-18T05:30:01.068Z,17.90
2022-08-18T05:31:00.331Z,17.93
2022-08-18T05:32:00.066Z,17.95
2022-08-18T05:33:00.039Z,17.95
2022-08-18T05:34:00.021Z,17.95
2022-08-18T05:35:00.022Z,17.96
2022-08-18T05:36:00.009Z,17.97
2022-08-18T05:36:59.991Z,17.97
2022-08-18T05:37:59.988Z,17.99
2022-08-18T05:38:59.980Z,18.00
2022-08-18T05:39:59.999Z,18.02
2022-08-18T05:40:59.982Z,18.03
2022-08-18T05:41:59.941Z,18.03
2022-08-18T05:42:59.929Z,18.05
2022-08-18T05:43:59.921Z,18.07
2022-08-18T05:44:59.912Z,18.10
2022-08-18T05:45:59.911Z,18.10
2022-08-18T05:46:59.882Z,18.11
2022-08-18T05:47:59.974Z,18.12
2022-08-18T05:48:59.862Z,18.12
2022-08-18T05:49:59.853Z,18.15
2022-08-18T05:50:59.852Z,18.15
2022-08-18T05:51:59.834Z,18.15
2022-08-18T05:53:00.059Z,18.17
2022-08-18T05:53:59.805Z,18.18
2022-08-18T05:54:59.796Z,18.18
2022-08-18T05:55:59.856Z,18.21
2022-08-18T05:56:59.797Z,18.23
2022-08-18T05:57:59.785Z,18.25
2022-08-18T05:58:59.767Z,18.27
2022-08-18T05:59:59.748Z,18.29
2022-08-18T06:01:00.161Z,18.32
2022-08-18T06:01:59.730Z,18.32
2022-08-18T06:02:59.826Z,18.33
2022-08-18T06:03:59.699Z,18.37
2022-08-18T06:04:59.691Z,18.36
2022-08-18T06:05:59.691Z,18.37
2022-08-18T06:06:59.659Z,18.39
2022-08-18T06:07:59.667Z,18.41
2022-08-18T06:08:59.640Z,18.44
2022-08-18T06:09:59.630Z,18.45
2022-08-18T06:10:59.630Z,18.47
2022-08-18T06:11:59.631Z,18.48
2022-08-18T06:12:59.599Z,18.48
2022-08-18T06:14:00.317Z,18.51
2022-08-18T06:14:59.631Z,18.52
2022-08-18T06:16:00.579Z,18.52
2022-08-18T06:16:59.552Z,18.54
2022-08-18T06:17:59.551Z,18.57
2022-08-18T06:18:59.530Z,18.58
2022-08-18T06:19:59.543Z,18.58
2022-08-18T06:20:59.583Z,18.60
2022-08-18T06:21:59.501Z,18.62
2022-08-18T06:22:59.492Z,18.62
2022-08-18T06:23:59.483Z,18.65
2022-08-18T06:24:59.465Z,18.65
2022-08-18T06:25:59.477Z,18.66
2022-08-18T06:26:59.456Z,18.67
2022-08-18T06:27:59.446Z,18.67
2022-08-18T06:28:59.425Z,18.69
2022-08-18T06:29:59.626Z,18.69
2022-08-18T06:30:59.406Z,18.69
2022-08-18T06:31:59.398Z,18.72
2022-08-18T06:32:59.376Z,18.70
2022-08-18T06:33:59.376Z,18.70
2022-08-18T06:34:59.365Z,18.72
2022-08-18T06:35:59.380Z,18.72
2022-08-18T06:36:59.338Z,18.73
2022-08-18T06:37:59.329Z,18.72
2022-08-18T06:38:59.317Z,18.75
2022-08-18T06:39:59.410Z,18.75
2022-08-18T06:40:59.367Z,18.75
2022-08-18T06:41:59.289Z,18.78
2022-08-18T06:43:02.007Z,18.78
2022-08-18T06:43:59.262Z,18.78
2022-08-18T06:44:59.248Z,18.81
2022-08-18T06:45:59.261Z,18.80
2022-08-18T06:46:59.242Z,18.81
2022-08-18T06:47:59.222Z,18.82
2022-08-18T06:48:59.213Z,18.82
2022-08-18T06:49:59.213Z,18.84
2022-08-18T06:50:59.196Z,18.84
2022-08-18T06:51:59.173Z,18.85
2022-08-18T06:52:59.154Z,18.87
2022-08-18T06:53:59.155Z,18.87
2022-08-18T06:54:59.133Z,18.90
2022-08-18T06:55:59.291Z,18.90
2022-08-18T06:56:59.114Z,18.90
2022-08-18T06:57:59.105Z,18.91
2022-08-18T06:58:59.106Z,18.90
2022-08-18T06:59:59.097Z,18.91
2022-08-18T07:00:59.274Z,18.91
2022-08-18T07:01:59.066Z,18.91
2022-08-18T07:02:59.046Z,18.90
2022-08-18T07:03:59.048Z,18.88
2022-08-18T07:04:59.029Z,18.90
2022-08-18T07:05:59.028Z,18.90
2022-08-18T07:06:59.030Z,18.87
2022-08-18T07:07:58.999Z,18.88
2022-08-18T07:08:58.987Z,18.88
2022-08-18T07:09:58.982Z,18.85
2022-08-18T07:10:58.980Z,18.85
2022-08-18T07:11:58.958Z,18.84
2022-08-18T07:12:58.940Z,18.84
2022-08-18T07:14:15.424Z,18.82
2022-08-18T07:14:59.919Z,18.81
2022-08-18T07:15:58.922Z,18.80
2022-08-18T07:17:00.056Z,18.78
2022-08-18T07:17:59.137Z,18.78
2022-08-18T07:18:58.871Z,18.76
2022-08-18T07:19:58.864Z,18.78
2022-08-18T07:20:58.864Z,18.76
2022-08-18T07:21:58.851Z,18.75
2022-08-18T07:22:59.933Z,18.75
2022-08-18T07:24:23.093Z,18.76
2022-08-18T07:25:04.629Z,18.76
2022-08-18T07:25:59.815Z,18.76
2022-08-18T07:26:58.806Z,18.80
2022-08-18T07:27:58.774Z,18.82
2022-08-18T07:28:58.764Z,18.82
2022-08-18T07:29:58.765Z,18.87
2022-08-18T07:31:15.961Z,18.90
2022-08-18T07:31:59.738Z,18.91
2022-08-18T07:32:58.716Z,18.95
2022-08-18T07:33:58.715Z,18.98
2022-08-18T07:34:58.698Z,19.00
2022-08-18T07:35:58.702Z,19.06
2022-08-18T07:36:58.669Z,19.08
2022-08-18T07:37:58.667Z,19.10
2022-08-18T07:38:58.656Z,19.14
2022-08-18T07:39:58.916Z,19.18
2022-08-18T07:40:58.647Z,19.22
2022-08-18T07:41:58.649Z,19.26
2022-08-18T07:43:01.799Z,19.28
2022-08-18T07:43:58.601Z,19.32
2022-08-18T07:44:58.589Z,19.36
2022-08-18T07:45:58.590Z,19.41
2022-08-18T07:46:58.570Z,19.44
2022-08-18T07:48:04.021Z,19.48
2022-08-18T07:48:59.593Z,19.55
2022-08-18T07:50:16.932Z,19.58
2022-08-18T07:51:00.156Z,19.63
2022-08-18T07:51:58.518Z,19.68
2022-08-18T07:52:58.503Z,19.73
2022-08-18T07:53:58.543Z,19.77
2022-08-18T07:54:58.482Z,19.78
2022-08-18T07:55:58.495Z,19.84
2022-08-18T07:56:58.456Z,19.88
2022-08-18T07:57:58.708Z,19.95
2022-08-18T07:58:58.445Z,19.96
2022-08-18T07:59:58.436Z,20.02
2022-08-18T08:00:59.914Z,20.05
2022-08-18T08:01:58.505Z,20.10
2022-08-18T08:02:58.398Z,20.11
2022-08-18T08:03:58.446Z,20.17
2022-08-18T08:04:58.370Z,20.20
2022-08-18T08:05:58.387Z,20.26
2022-08-18T08:07:23.004Z,20.29
2022-08-18T08:07:59.340Z,20.33
2022-08-18T08:08:58.337Z,20.36
2022-08-18T08:09:58.328Z,20.42
2022-08-18T08:10:58.308Z,20.47
2022-08-18T08:11:58.299Z,20.51
2022-08-18T08:13:08.251Z,20.54
2022-08-18T08:13:59.285Z,20.58
2022-08-18T08:14:58.287Z,20.62
2022-08-18T08:15:58.253Z,20.67
2022-08-18T08:16:58.244Z,20.73
2022-08-18T08:17:58.232Z,20.77
2022-08-18T08:18:58.213Z,20.82
2022-08-18T08:20:00.873Z,20.87
2022-08-18T08:20:58.203Z,20.89
2022-08-18T08:21:58.182Z,20.95
2022-08-18T08:22:58.174Z,20.97
2022-08-18T08:23:58.174Z,21.03
2022-08-18T08:24:58.174Z,21.04
2022-08-18T08:25:58.145Z,21.09
2022-08-18T08:26:58.126Z,21.14
2022-08-18T08:27:58.116Z,21.17
2022-08-18T08:28:58.106Z,21.22
2022-08-18T08:29:58.110Z,21.27
2022-08-18T08:31:13.490Z,21.31
2022-08-18T08:31:59.119Z,21.35
2022-08-18T08:32:58.057Z,21.42
2022-08-18T08:33:59.298Z,21.44
2022-08-18T08:34:58.040Z,21.50
2022-08-18T08:35:58.068Z,21.42
2022-08-18T08:36:58.021Z,21.31
2022-08-18T08:37:58.470Z,21.27
2022-08-18T08:38:57.990Z,21.27
2022-08-18T08:39:58.109Z,21.29
2022-08-18T08:40:57.985Z,21.31
2022-08-18T08:42:29.261Z,21.28
2022-08-18T08:42:58.949Z,21.22
2022-08-18T08:43:57.981Z,21.17
2022-08-18T08:44:59.831Z,21.12
2022-08-18T08:45:57.936Z,21.07
2022-08-18T08:46:57.913Z,21.03
2022-08-18T08:48:06.690Z,21.01
2022-08-18T08:48:58.884Z,21.01
2022-08-18T08:50:00.454Z,20.98
2022-08-18T08:50:57.884Z,20.99
2022-08-18T08:51:57.878Z,20.97
2022-08-18T08:52:57.857Z,20.94
2022-08-18T08:53:57.836Z,20.94
2022-08-18T08:54:57.832Z,20.95
2022-08-18T08:56:02.216Z,20.94
2022-08-18T08:56:58.817Z,20.89
2022-08-18T08:57:57.795Z,20.82
2022-08-18T08:58:57.787Z,20.80
2022-08-18T08:59:57.781Z,20.82
2022-08-18T09:00:57.761Z,20.89
2022-08-18T09:01:57.803Z,20.92
2022-08-18T09:02:57.798Z,20.98
2022-08-18T09:03:57.747Z,20.99
2022-08-18T09:05:08.387Z,20.95
2022-08-18T09:05:58.827Z,20.91
2022-08-18T09:06:57.690Z,20.89
2022-08-18T09:07:57.687Z,20.88
2022-08-18T09:08:57.697Z,20.82
2022-08-18T09:09:57.674Z,20.77
2022-08-18T09:10:57.665Z,20.74
2022-08-18T09:11:57.644Z,20.74
2022-08-18T09:12:57.624Z,20.77
2022-08-18T09:13:57.643Z,20.80
2022-08-18T09:14:57.702Z,20.79
2022-08-18T09:15:57.595Z,20.82
2022-08-18T09:16:57.585Z,20.85
2022-08-18T09:17:57.606Z,20.85
2022-08-18T09:18:57.564Z,20.87
2022-08-18T09:19:57.568Z,20.87
2022-08-18T09:20:57.546Z,20.89
2022-08-18T09:21:57.536Z,20.91
2022-08-18T09:22:57.527Z,20.95
2022-08-18T09:23:57.527Z,20.99
2022-08-18T09:24:57.516Z,21.07
2022-08-18T09:25:57.499Z,21.14
2022-08-18T09:26:57.499Z,21.21
2022-08-18T09:28:12.767Z,21.29
2022-08-18T09:28:58.463Z,21.29
2022-08-18T09:29:57.450Z,21.28
2022-08-18T09:30:57.464Z,21.29
2022-08-18T09:31:57.421Z,21.28
2022-08-18T09:32:57.411Z,21.29
2022-08-18T09:33:57.442Z,21.31
2022-08-18T09:34:57.403Z,21.28
2022-08-18T09:35:57.839Z,21.27
2022-08-18T12:16:12.402Z,22.95
2022-08-18T12:17:12.287Z,22.98
2022-08-18T12:18:28.107Z,22.97
2022-08-18T12:19:13.267Z,22.97
2022-08-18T12:20:12.333Z,22.97
2022-08-18T12:21:12.237Z,22.95
2022-08-18T12:22:12.228Z,22.94
2022-08-18T12:23:12.225Z,22.92
2022-08-18T12:24:12.229Z,22.92
2022-08-18T12:25:12.419Z,22.91
2022-08-18T12:26:27.240Z,22.91
2022-08-18T12:27:21.687Z,22.97
2022-08-18T12:28:13.209Z,23.02
2022-08-18T12:29:12.161Z,23.09
2022-08-18T12:30:16.554Z,23.10
2022-08-18T12:31:16.991Z,23.10
2022-08-18T12:32:18.237Z,23.10
2022-08-18T12:33:13.189Z,23.12
2022-08-18T12:34:13.578Z,23.07
2022-08-18T12:35:12.105Z,23.13
2022-08-18T12:36:12.106Z,23.25
2022-08-18T12:38:14.407Z,23.53
2022-08-18T12:39:12.063Z,23.55
2022-08-18T12:40:12.507Z,23.54
2022-08-18T12:41:12.058Z,23.51
2022-08-18T12:42:12.075Z,23.47
2022-08-18T12:43:12.010Z,23.50
2022-08-18T12:44:13.128Z,23.50
2022-08-18T12:45:12.006Z,23.70
2022-08-18T12:46:12.111Z,24.06
2022-08-18T12:47:11.979Z,24.18
2022-08-18T12:48:12.054Z,24.16
2022-08-18T12:49:11.956Z,24.27
2022-08-18T12:50:11.963Z,24.25
2022-08-18T12:51:11.927Z,24.30
2022-08-18T12:52:12.046Z,24.30
2022-08-18T12:53:11.906Z,24.31
2022-08-18T12:54:12.628Z,24.42
2022-08-18T12:55:22.031Z,24.43
2022-08-18T12:56:12.921Z,24.46
2022-08-18T12:57:11.857Z,24.61
2022-08-18T12:58:11.866Z,24.69
2022-08-18T12:59:11.913Z,24.61
2022-08-18T13:00:16.904Z,24.35
2022-08-18T13:01:12.879Z,24.15
2022-08-18T13:02:11.803Z,24.08
2022-08-18T13:03:11.795Z,24.16
2022-08-18T13:04:14.104Z,24.30
2022-08-18T13:05:11.795Z,24.42
2022-08-18T13:06:11.804Z,24.60
2022-08-18T13:07:11.756Z,24.77
2022-08-18T13:08:12.641Z,24.85
2022-08-18T13:09:16.558Z,24.95
2022-08-18T13:10:35.778Z,25.00
2022-08-18T13:11:15.018Z,25.05
2022-08-18T13:12:14.998Z,25.10
2022-08-18T13:13:11.689Z,25.06
2022-08-18T13:14:11.720Z,24.98
2022-08-18T13:15:11.682Z,24.78
2022-08-18T13:16:16.481Z,24.68
2022-08-18T13:17:32.303Z,24.64
2022-08-18T13:18:14.283Z,24.61
2022-08-18T13:19:11.636Z,24.83
2022-08-18T13:20:11.645Z,24.87
2022-08-18T13:21:11.605Z,24.83
2022-08-18T13:22:11.625Z,24.76
2022-08-18T13:23:11.584Z,24.84
2022-08-18T13:24:12.659Z,25.02
2022-08-18T13:25:11.590Z,25.25
2022-08-18T13:26:11.608Z,25.40
2022-08-18T13:27:22.985Z,25.30
2022-08-18T13:28:12.568Z,25.28
2022-08-18T13:29:11.534Z,25.38
2022-08-18T13:30:16.771Z,25.47
2022-08-18T13:31:12.498Z,25.51
2022-08-18T13:32:11.510Z,25.50
2022-08-18T13:33:53.701Z,25.52
2022-08-18T13:34:19.122Z,25.47
2022-08-18T13:35:13.307Z,25.45
2022-08-18T13:36:11.461Z,25.54
2022-08-18T13:37:11.444Z,25.85
2022-08-18T13:38:19.073Z,26.26
2022-08-18T13:39:12.424Z,26.58
2022-08-18T13:40:12.485Z,26.67
2022-08-18T13:41:15.673Z,26.62
2022-08-18T13:42:28.379Z,26.60
2022-08-18T13:43:12.394Z,26.62
2022-08-18T13:44:11.687Z,26.60
2022-08-18T13:45:24.816Z,26.58
2022-08-18T13:46:12.367Z,26.62
2022-08-18T13:47:11.346Z,26.60
2022-08-18T13:48:11.442Z,26.62
2022-08-18T13:49:11.318Z,26.43
2022-08-18T13:50:11.597Z,26.10
2022-08-18T13:51:11.289Z,25.80
2022-08-18T13:52:16.768Z,25.70
2022-08-18T13:54:30.469Z,25.73
2022-08-18T13:55:13.807Z,25.77
2022-08-18T13:56:11.242Z,25.73
2022-08-18T13:57:11.223Z,25.69
2022-08-18T13:58:20.274Z,25.61
2022-08-18T13:59:12.206Z,25.57
2022-08-18T14:00:17.867Z,25.58
2022-08-18T14:02:12.222Z,26.01
2022-08-18T14:03:11.167Z,26.26
2022-08-18T14:04:12.517Z,26.40
2022-08-18T14:05:11.154Z,26.57
2022-08-18T14:06:13.126Z,26.72
2022-08-18T14:07:18.257Z,26.77
2022-08-18T14:08:12.167Z,26.75
2022-08-18T14:09:19.505Z,26.73
2022-08-18T14:10:13.459Z,26.72
2022-08-18T14:11:11.089Z,26.52
2022-08-18T14:12:15.754Z,26.33
2022-08-18T14:13:20.664Z,26.20
2022-08-18T14:14:12.040Z,26.10
2022-08-18T14:15:11.050Z,26.10
2022-08-18T14:16:11.042Z,26.09
2022-08-18T14:17:12.054Z,26.21
2022-08-18T14:18:11.193Z,26.37
2022-08-18T14:19:12.004Z,26.47
2022-08-18T14:20:15.423Z,26.40
2022-08-18T14:21:11.974Z,26.33
2022-08-18T14:22:11.575Z,26.28
2022-08-18T14:23:10.967Z,26.17
2022-08-18T14:24:14.424Z,26.07
2022-08-18T14:25:10.946Z,25.95
2022-08-18T14:26:11.006Z,25.87
2022-08-18T14:27:10.928Z,25.82
2022-08-18T14:28:12.013Z,25.79
2022-08-18T14:29:11.142Z,25.80
2022-08-18T14:30:11.889Z,25.99
2022-08-18T14:31:10.870Z,26.23
2022-08-18T14:32:13.205Z,26.47
2022-08-18T14:33:11.937Z,26.58
2022-08-18T14:34:10.835Z,26.60
2022-08-18T14:35:33.553Z,26.67
2022-08-18T14:36:11.914Z,26.70
2022-08-18T14:37:10.812Z,26.66
2022-08-18T14:38:10.813Z,26.52
2022-08-18T14:39:10.783Z,26.39
2022-08-18T14:40:12.510Z,26.51
2022-08-18T14:41:10.764Z,26.65
2022-08-18T14:42:10.783Z,26.72
2022-08-18T14:43:10.738Z,26.81
2022-08-18T14:44:11.997Z,26.92
2022-08-18T14:45:33.993Z,27.02
2022-08-18T14:46:11.700Z,27.00
2022-08-18T14:47:10.676Z,26.92
2022-08-18T14:48:11.130Z,26.85
2022-08-18T14:49:10.656Z,26.73
2022-08-18T14:50:10.673Z,26.50
2022-08-18T14:51:10.638Z,26.26
2022-08-18T14:52:10.716Z,26.07
2022-08-18T14:53:10.618Z,25.91
2022-08-18T14:54:10.713Z,25.80
2022-08-18T14:55:11.598Z,25.70
2022-08-18T14:56:10.601Z,25.69
2022-08-18T14:57:10.610Z,25.75
2022-08-18T14:58:10.657Z,25.79
2022-08-18T14:59:10.549Z,25.85
2022-08-18T15:00:10.540Z,25.82
2022-08-18T15:01:11.150Z,25.76
2022-08-18T15:02:13.097Z,25.67
2022-08-18T15:03:10.511Z,25.61
2022-08-18T15:04:19.194Z,25.67
2022-08-18T15:05:19.284Z,25.73
2022-08-18T15:06:17.113Z,25.80
2022-08-18T15:07:12.786Z,25.83
2022-08-18T15:08:10.522Z,25.90
2022-08-18T15:09:10.460Z,25.98
2022-08-18T15:10:17.059Z,26.01
2022-08-18T15:11:12.036Z,25.97
2022-08-18T15:12:10.463Z,25.98
2022-08-18T15:13:10.404Z,26.01
2022-08-18T15:14:10.395Z,26.02
2022-08-18T15:15:10.403Z,26.02
2022-08-18T15:16:10.386Z,26.01
2022-08-18T15:17:12.025Z,25.99
2022-08-18T15:18:10.436Z,25.94
2022-08-18T15:19:59.402Z,25.90
2022-08-18T15:20:11.369Z,25.83
2022-08-18T15:21:19.341Z,25.79
2022-08-18T15:22:11.322Z,25.79
2022-08-18T15:23:10.301Z,25.79
2022-08-18T15:24:14.937Z,25.80
2022-08-18T15:25:11.293Z,25.82
2022-08-18T15:26:10.284Z,25.88
2022-08-18T15:27:19.631Z,25.90
2022-08-18T15:28:16.268Z,25.91
2022-08-18T15:29:11.226Z,25.82
2022-08-18T15:30:10.238Z,25.73
2022-08-18T15:31:17.554Z,25.69
2022-08-18T15:32:11.245Z,25.70
2022-08-18T15:33:10.189Z,25.70
2022-08-18T15:34:12.733Z,25.70